createdAt,value
2023-10-19T00:02:08.946Z,9.90
2023-10-19T00:04:37.315Z,10.45
2023-10-19T00:07:06.958Z,9.45
2023-10-19T00:09:38.612Z,11.73
2023-10-19T00:12:11.012Z,10.35
2023-10-19T00:14:37.782Z,10.07
2023-10-19T00:17:11.901Z,10.90
2023-10-19T00:19:58.484Z,9.95
2023-10-19T00:22:25.593Z,10.77
2023-10-19T00:27:20.580Z,11.23
2023-10-19T00:29:50.712Z,10.13
2023-10-19T00:32:20.553Z,11.77
2023-10-19T00:34:53.229Z,11.43
2023-10-19T00:37:27.358Z,10.73
2023-10-19T00:39:56.738Z,11.25
2023-10-19T00:42:32.472Z,11.13
2023-10-19T00:45:06.996Z,11.18
2023-10-19T00:47:41.535Z,11.43
2023-10-19T00:50:23.249Z,11.75
2023-10-19T00:52:51.378Z,11.65
2023-10-19T00:55:22.752Z,11.63
2023-10-19T00:57:51.034Z,10.32
2023-10-19T01:00:35.573Z,12.15
2023-10-19T01:03:06.300Z,12.23
2023-10-19T01:05:37.141Z,10.70
2023-10-19T01:08:29.126Z,10.43
2023-10-19T01:10:55.797Z,10.85
2023-10-19T01:13:28.879Z,9.98
2023-10-19T01:15:55.738Z,10.75
2023-10-19T01:18:23.539Z,10.48
2023-10-19T01:20:54.116Z,11.10
2023-10-19T01:23:26.573Z,10.73
2023-10-19T01:26:00.231Z,9.77
2023-10-19T01:28:51.264Z,11.13
2023-10-19T01:31:29.523Z,10.15
2023-10-19T01:33:58.847Z,10.50
2023-10-19T01:36:26.681Z,10.43
2023-10-19T01:38:56.533Z,11.65
2023-10-19T01:41:25.509Z,10.80
2023-10-19T01:43:54.876Z,10.95
2023-10-19T01:46:35.075Z,11.07
2023-10-19T01:49:04.773Z,9.88
2023-10-19T01:51:34.101Z,10.48
2023-10-19T01:54:06.274Z,11.45
2023-10-19T01:56:36.495Z,11.10
2023-10-19T01:59:06.214Z,10.60
2023-10-19T02:01:34.216Z,11.40
2023-10-19T02:04:04.497Z,11.82
2023-10-19T02:06:38.083Z,10.85
2023-10-19T02:09:18.074Z,11.27
2023-10-19T02:11:49.387Z,11.45
2023-10-19T02:14:20.196Z,12.40
2023-10-19T02:16:53.204Z,12.75
2023-10-19T02:19:21.644Z,11.30
2023-10-19T02:21:59.616Z,11.35
2023-10-19T02:24:27.309Z,11.57
2023-10-19T02:26:58.856Z,12.30
2023-10-19T02:29:27.275Z,12.13
2023-10-19T02:31:57.440Z,12.73
2023-10-19T02:34:24.560Z,10.80
2023-10-19T02:36:51.290Z,11.63
2023-10-19T02:39:18.893Z,12.65
2023-10-19T02:41:49.291Z,11.68
2023-10-19T02:44:23.288Z,11.70
2023-10-19T02:46:53.223Z,12.55
2023-10-19T02:49:22.449Z,12.38
2023-10-19T02:51:50.745Z,12.30
2023-10-19T02:54:31.215Z,12.57
2023-10-19T02:56:59.586Z,11.32
2023-10-19T02:59:33.103Z,10.75
2023-10-19T03:02:13.333Z,13.05
2023-10-19T03:04:43.086Z,11.70
2023-10-19T03:07:13.242Z,12.93
2023-10-19T03:09:55.230Z,12.18
2023-10-19T03:12:26.637Z,13.05
2023-10-19T03:14:53.419Z,12.32
2023-10-19T03:17:24.277Z,12.10
2023-10-19T03:19:51.654Z,12.02
2023-10-19T03:22:18.522Z,11.77
2023-10-19T03:24:45.323Z,11.85
2023-10-19T03:27:22.929Z,11.38
2023-10-19T03:32:29.783Z,11.50
2023-10-19T03:34:57.803Z,12.10
2023-10-19T03:37:31.487Z,12.15
2023-10-19T03:39:59.841Z,12.15
2023-10-19T03:42:29.139Z,11.57
2023-10-19T03:44:56.129Z,11.82
2023-10-19T03:47:27.628Z,11.23
2023-10-19T03:49:54.794Z,11.77
2023-10-19T03:54:50.315Z,13.70
2023-10-19T03:57:31.081Z,11.95
2023-10-19T03:59:58.416Z,11.82
2023-10-19T04:02:26.526Z,11.70
2023-10-19T04:04:53.731Z,13.15
2023-10-19T04:07:23.532Z,11.88
2023-10-19T04:10:09.392Z,11.93
2023-10-19T04:12:38.900Z,12.05
2023-10-19T04:15:18.186Z,12.32
2023-10-19T04:17:49.892Z,12.82
2023-10-19T04:20:20.172Z,12.93
2023-10-19T04:22:48.813Z,12.68
2023-10-19T04:25:30.567Z,13.63
2023-10-19T04:27:58.550Z,11.93
2023-10-19T04:30:25.722Z,13.48
2023-10-19T04:32:52.668Z,13.07
2023-10-19T04:35:23.052Z,13.57
2023-10-19T04:37:54.576Z,14.93
2023-10-19T04:40:22.652Z,13.50
2023-10-19T04:42:51.367Z,13.55
2023-10-19T04:45:18.125Z,13.43
2023-10-19T04:47:44.808Z,14.02
2023-10-19T04:50:11.962Z,13.98
2023-10-19T04:55:06.523Z,13.23
2023-10-19T04:57:33.456Z,14.43
2023-10-19T05:00:00.354Z,15.45
2023-10-19T05:02:27.190Z,12.90
2023-10-19T05:04:53.844Z,13.77
2023-10-19T05:07:20.440Z,14.63
2023-10-19T05:09:48.158Z,14.15
2023-10-19T05:12:15.692Z,14.95
2023-10-19T05:14:43.517Z,13.70
2023-10-19T05:17:13.890Z,14.30
2023-10-19T05:19:41.215Z,14.82
2023-10-19T05:22:09.612Z,14.15
2023-10-19T05:24:37.120Z,14.77
2023-10-19T05:27:04.637Z,14.25
2023-10-19T05:29:34.576Z,14.52
2023-10-19T05:32:01.986Z,15.35
2023-10-19T05:34:30.644Z,14.52
2023-10-19T05:37:00.186Z,15.50
2023-10-19T05:39:30.071Z,13.90
2023-10-19T05:41:56.920Z,14.13
2023-10-19T05:44:26.081Z,14.65
2023-10-19T05:46:53.183Z,14.77
2023-10-19T05:49:19.800Z,15.07
2023-10-19T05:51:46.440Z,14.85
2023-10-19T05:54:13.675Z,14.10
2023-10-19T05:56:40.466Z,15.63
2023-10-19T05:59:07.928Z,15.23
2023-10-19T06:01:34.937Z,15.63
2023-10-19T06:04:01.915Z,15.07
2023-10-19T06:06:28.631Z,16.15
2023-10-19T06:08:55.321Z,14.05
2023-10-19T06:11:22.981Z,14.05
2023-10-19T06:13:49.772Z,14.85
2023-10-19T06:16:19.355Z,15.23
2023-10-19T06:18:46.257Z,15.05
2023-10-19T06:21:13.625Z,15.95
2023-10-19T06:23:40.340Z,14.38
2023-10-19T06:26:14.442Z,15.45
2023-10-19T06:28:42.230Z,15.35
2023-10-19T06:31:09.939Z,15.18
2023-10-19T06:33:37.234Z,15.13
2023-10-19T06:36:04.817Z,14.13
2023-10-19T06:38:32.798Z,16.15
2023-10-19T06:41:00.917Z,16.30
2023-10-19T06:43:31.099Z,15.18
2023-10-19T06:46:01.568Z,15.38
2023-10-19T06:48:28.414Z,14.73
2023-10-19T06:50:55.020Z,15.43
2023-10-19T06:53:22.859Z,14.32
2023-10-19T06:55:49.585Z,16.75
2023-10-19T06:58:16.344Z,15.38
2023-10-19T07:00:48.331Z,14.68
2023-10-19T07:03:15.229Z,16.38
2023-10-19T07:05:41.917Z,16.30
2023-10-19T07:08:08.468Z,15.50
2023-10-19T07:10:36.210Z,15.13
2023-10-19T07:13:03.313Z,15.15
2023-10-19T07:17:59.519Z,13.50
2023-10-19T07:20:26.944Z,15.23
2023-10-19T07:22:55.576Z,16.65
2023-10-19T07:25:23.017Z,15.60
2023-10-19T07:27:51.079Z,15.90
2023-10-19T07:30:23.389Z,15.90
2023-10-19T07:32:55.671Z,15.40
2023-10-19T07:35:23.774Z,15.40
2023-10-19T07:37:51.584Z,13.45
2023-10-19T07:40:19.509Z,15.32
2023-10-19T07:42:47.700Z,15.20
2023-10-19T07:45:14.397Z,15.40
2023-10-19T07:47:42.062Z,15.43
2023-10-19T07:50:18.750Z,16.00
2023-10-19T07:52:50.809Z,16.10
2023-10-19T07:55:18.821Z,15.15
2023-10-19T07:57:45.992Z,16.38
2023-10-19T08:02:43.500Z,16.23
2023-10-19T08:07:47.925Z,15.45
2023-10-19T08:10:16.512Z,14.60
2023-10-19T08:12:44.289Z,16.17
2023-10-19T08:15:12.375Z,16.05
2023-10-19T08:17:40.697Z,16.92
2023-10-19T08:20:24.148Z,14.98
2023-10-19T08:22:53.251Z,15.07
2023-10-19T08:25:20.000Z,15.13
2023-10-19T08:27:49.643Z,15.50
2023-10-19T08:30:21.275Z,16.33
2023-10-19T08:32:49.356Z,15.88
2023-10-19T08:35:19.625Z,15.82
2023-10-19T08:37:47.340Z,15.38
2023-10-19T08:40:18.630Z,16.80
2023-10-19T08:42:46.742Z,16.13
2023-10-19T08:45:14.350Z,15.93
2023-10-19T08:47:57.834Z,16.77
2023-10-19T08:50:30.280Z,15.52
2023-10-19T08:53:04.764Z,17.05
2023-10-19T08:55:48.516Z,17.08
2023-10-19T08:58:17.937Z,16.40
2023-10-19T09:00:50.737Z,16.48
2023-10-19T09:03:25.663Z,16.42
2023-10-19T09:05:52.871Z,16.75
2023-10-19T09:08:21.085Z,17.02
2023-10-19T09:10:49.968Z,17.60
2023-10-19T09:13:19.869Z,17.85
2023-10-19T09:15:50.544Z,17.40
2023-10-19T09:18:22.140Z,17.33
2023-10-19T09:21:10.810Z,17.08
2023-10-19T09:23:38.078Z,18.30
2023-10-19T09:26:08.861Z,17.20
2023-10-19T09:28:37.437Z,17.02
2023-10-19T09:31:05.016Z,17.13
2023-10-19T09:33:35.667Z,16.58
2023-10-19T09:36:05.888Z,16.58
2023-10-19T09:38:34.190Z,18.52
2023-10-19T09:41:01.867Z,16.15
2023-10-19T09:43:36.005Z,18.02
2023-10-19T09:46:07.802Z,17.27
2023-10-19T09:48:42.772Z,17.63
2023-10-19T09:51:16.467Z,17.95
2023-10-19T09:53:48.588Z,16.23
2023-10-19T09:56:25.006Z,18.15
2023-10-19T09:59:00.917Z,17.33
2023-10-19T10:01:28.408Z,17.95
2023-10-19T10:03:55.375Z,18.23
2023-10-19T10:06:51.739Z,15.57
2023-10-19T10:09:25.227Z,16.75
2023-10-19T10:11:54.886Z,16.98
2023-10-19T10:14:27.173Z,16.90
2023-10-19T10:17:04.838Z,15.77
2023-10-19T10:19:31.978Z,15.18
2023-10-19T10:24:33.067Z,14.73
2023-10-19T10:27:04.363Z,14.52
2023-10-19T10:29:32.721Z,15.38
2023-10-19T10:32:00.776Z,14.98
2023-10-19T10:34:43.778Z,14.85
2023-10-19T10:37:15.338Z,16.17
2023-10-19T10:39:42.049Z,14.73
2023-10-19T10:42:10.942Z,13.85
2023-10-19T10:44:41.617Z,15.70
2023-10-19T10:47:10.855Z,14.75
2023-10-19T10:49:57.233Z,13.95
2023-10-19T10:52:35.342Z,14.13
2023-10-19T10:55:13.896Z,14.43
2023-10-19T10:57:42.306Z,14.43
2023-10-19T11:00:11.136Z,15.52
2023-10-19T11:02:43.906Z,15.02
2023-10-19T11:05:15.107Z,14.00
2023-10-19T11:07:43.357Z,14.77
2023-10-19T11:10:11.225Z,16.10
2023-10-19T11:12:38.746Z,14.52
2023-10-19T11:15:10.855Z,14.52
2023-10-19T11:17:44.715Z,15.40
2023-10-19T11:20:22.324Z,15.02
2023-10-19T11:22:51.135Z,16.77
2023-10-19T11:25:25.444Z,15.05
2023-10-19T11:27:52.237Z,16.85
2023-10-19T11:30:30.459Z,15.77
2023-10-19T11:33:03.299Z,16.30
2023-10-19T11:35:32.593Z,15.38
2023-10-19T11:38:00.997Z,15.27
2023-10-19T11:40:28.358Z,14.90
2023-10-19T11:42:59.879Z,15.68
2023-10-19T11:45:26.737Z,15.95
2023-10-19T11:47:54.660Z,16.05
2023-10-19T11:50:21.415Z,14.75
2023-10-19T11:52:48.158Z,14.90
2023-10-19T11:55:16.095Z,14.70
2023-10-19T11:57:45.492Z,14.98
2023-10-19T12:00:26.169Z,15.80
2023-10-19T12:02:53.317Z,14.65
2023-10-19T12:05:20.130Z,15.00
2023-10-19T12:07:46.787Z,15.63
2023-10-19T12:10:13.828Z,16.58
2023-10-19T12:15:13.423Z,14.88
2023-10-19T12:17:40.343Z,14.57
2023-10-19T12:20:07.833Z,15.43
2023-10-19T12:22:40.435Z,13.90
2023-10-19T12:25:07.593Z,14.38
2023-10-19T12:27:34.324Z,14.25
2023-10-19T12:30:02.872Z,14.23
2023-10-19T12:32:29.622Z,15.40
2023-10-19T12:34:58.848Z,14.02
2023-10-19T12:37:25.965Z,13.85
2023-10-19T12:39:53.284Z,14.05
2023-10-19T12:42:19.868Z,14.95
2023-10-19T12:44:48.322Z,15.15
2023-10-19T12:47:15.432Z,14.00
2023-10-19T12:49:42.195Z,14.63
2023-10-19T12:52:11.821Z,14.65
2023-10-19T12:54:39.079Z,15.25
2023-10-19T12:57:08.647Z,15.52
2023-10-19T12:59:38.767Z,15.13
2023-10-19T13:02:09.736Z,16.33
2023-10-19T13:04:37.815Z,14.57
2023-10-19T13:07:06.565Z,14.32
2023-10-19T13:09:34.016Z,15.10
2023-10-19T13:14:28.651Z,15.20
2023-10-19T13:16:55.966Z,15.70
2023-10-19T13:19:27.160Z,15.57
2023-10-19T13:21:55.533Z,15.60
2023-10-19T13:24:22.080Z,14.77
2023-10-19T13:26:49.687Z,16.02
2023-10-19T13:29:21.838Z,15.73
2023-10-19T13:31:51.676Z,16.15
2023-10-19T13:34:18.395Z,15.98
2023-10-19T13:36:47.744Z,14.93
2023-10-19T13:39:17.769Z,15.32
2023-10-19T13:41:45.301Z,16.02
2023-10-19T13:44:13.096Z,14.52
2023-10-19T13:46:40.018Z,15.93
2023-10-19T13:49:07.060Z,16.23
2023-10-19T13:51:34.429Z,15.60
2023-10-19T13:54:01.198Z,16.10
2023-10-19T13:56:28.251Z,14.63
2023-10-19T14:01:25.616Z,14.80
2023-10-19T14:03:56.130Z,20.38
2023-10-19T14:06:24.958Z,15.52
2023-10-19T14:08:52.603Z,14.50
2023-10-19T14:11:47.989Z,17.33
2023-10-19T14:21:54.475Z,15.63
2023-10-19T14:24:21.271Z,15.38
2023-10-19T14:26:48.076Z,15.77
2023-10-19T14:29:14.992Z,16.60
2023-10-19T14:31:42.048Z,16.63
2023-10-19T14:36:38.353Z,16.38
2023-10-19T14:39:06.403Z,17.67
2023-10-19T14:41:33.844Z,14.95
2023-10-19T14:44:02.288Z,15.10
2023-10-19T14:46:30.563Z,15.50
2023-10-19T14:48:57.207Z,14.55
2023-10-19T14:51:24.091Z,15.35
2023-10-19T14:53:50.860Z,15.20
2023-10-19T14:56:17.634Z,14.38
2023-10-19T14:58:44.360Z,15.60
2023-10-19T15:01:17.577Z,16.00
2023-10-19T15:03:44.369Z,16.08
2023-10-19T15:06:11.757Z,15.65
2023-10-19T15:08:38.886Z,15.15
2023-10-19T15:11:05.648Z,17.35
2023-10-19T15:13:32.424Z,15.40
2023-10-19T15:16:08.529Z,17.15
2023-10-19T15:18:37.367Z,16.33
2023-10-19T15:21:09.610Z,18.08
2023-10-19T15:23:37.489Z,16.75
2023-10-19T15:26:04.196Z,17.27
2023-10-19T15:28:34.338Z,17.08
2023-10-19T15:31:01.072Z,17.17
2023-10-19T15:33:28.379Z,18.92
2023-10-19T15:35:58.700Z,19.65
2023-10-19T15:38:25.396Z,17.40
2023-10-19T15:40:52.094Z,17.80
2023-10-19T15:43:18.672Z,18.42
2023-10-19T15:45:46.519Z,18.20
2023-10-19T15:48:13.555Z,19.67
2023-10-19T15:50:44.501Z,18.80
2023-10-19T15:53:11.577Z,32.22
2023-10-19T15:58:06.562Z,19.48
2023-10-19T16:00:34.175Z,19.33
2023-10-19T16:03:01.305Z,19.45
2023-10-19T16:07:54.458Z,18.00
2023-10-19T16:10:21.605Z,22.38
2023-10-19T16:12:48.557Z,20.58
2023-10-19T16:15:15.303Z,28.15
2023-10-19T16:17:44.365Z,21.13
2023-10-19T16:20:14.096Z,19.95
2023-10-19T16:22:41.112Z,21.25
2023-10-19T16:25:08.794Z,21.15
2023-10-19T16:27:35.493Z,21.20
2023-10-19T16:30:02.446Z,21.73
2023-10-19T16:34:58.894Z,21.10
2023-10-19T16:39:53.949Z,20.27
2023-10-19T16:42:21.947Z,22.38
2023-10-19T16:44:48.923Z,23.17
2023-10-19T16:47:15.527Z,23.60
2023-10-19T16:49:42.153Z,23.35
2023-10-19T16:52:08.878Z,21.27
2023-10-19T16:54:38.501Z,23.30
2023-10-19T16:57:05.298Z,24.23
2023-10-19T16:59:32.177Z,23.08
2023-10-19T17:01:59.150Z,23.80
2023-10-19T17:04:26.955Z,22.30
2023-10-19T17:06:53.844Z,23.67
2023-10-19T17:09:22.125Z,23.58
2023-10-19T17:11:50.913Z,24.55
2023-10-19T17:14:17.637Z,22.25
2023-10-19T17:16:45.564Z,22.65
2023-10-19T17:19:12.676Z,22.83
2023-10-19T17:21:42.067Z,22.42
2023-10-19T17:24:10.108Z,22.58
2023-10-19T17:26:36.753Z,22.65
2023-10-19T17:29:03.626Z,21.83
2023-10-19T17:31:30.795Z,22.33
2023-10-19T17:33:58.045Z,22.63
2023-10-19T17:38:52.348Z,22.00
2023-10-19T17:41:19.576Z,23.23
2023-10-19T17:46:15.231Z,21.92
2023-10-19T17:48:45.149Z,22.98
2023-10-19T17:51:14.569Z,23.27
2023-10-19T17:53:41.551Z,23.00
2023-10-19T17:56:09.005Z,22.33
2023-10-19T17:58:36.426Z,22.55
2023-10-19T18:01:10.816Z,22.98
2023-10-19T18:03:42.354Z,23.67
2023-10-19T18:06:10.575Z,23.80
2023-10-19T18:08:37.875Z,24.20
2023-10-19T18:11:04.938Z,23.33
2023-10-19T18:13:34.577Z,22.73
2023-10-19T18:16:04.063Z,24.25
2023-10-19T18:18:31.185Z,22.92
2023-10-19T18:20:58.756Z,21.95
2023-10-19T18:23:28.803Z,22.27
2023-10-19T18:25:57.137Z,22.48
2023-10-19T18:28:24.290Z,22.23
2023-10-19T18:33:30.288Z,22.17
2023-10-19T18:36:01.470Z,22.40
2023-10-19T18:38:29.142Z,21.73
2023-10-19T18:41:00.319Z,23.02
2023-10-19T18:43:30.809Z,23.65
2023-10-19T18:45:57.862Z,23.45
2023-10-19T18:53:37.124Z,20.80
2023-10-19T18:56:07.495Z,23.15
2023-10-19T18:58:35.107Z,22.10
2023-10-19T19:01:03.434Z,21.20
2023-10-19T19:03:33.095Z,20.60
2023-10-19T19:06:01.842Z,21.80
2023-10-19T19:08:30.100Z,20.67
2023-10-19T19:10:58.620Z,19.55
2023-10-19T19:13:26.370Z,20.92
2023-10-19T19:15:54.345Z,19.45
2023-10-19T19:18:21.128Z,17.95
2023-10-19T19:20:47.813Z,19.73
2023-10-19T19:23:14.444Z,18.40
2023-10-19T19:25:44.353Z,18.15
2023-10-19T19:28:10.938Z,18.48
2023-10-19T19:30:38.603Z,18.02
2023-10-19T19:33:06.852Z,18.90
2023-10-19T19:35:33.504Z,18.17
2023-10-19T19:38:00.644Z,18.95
2023-10-19T19:40:27.311Z,18.33
2023-10-19T19:42:54.227Z,17.90
2023-10-19T19:45:23.797Z,16.55
2023-10-19T19:47:53.920Z,18.35
2023-10-19T19:50:21.816Z,16.85
2023-10-19T19:52:48.862Z,18.05
2023-10-19T19:55:15.806Z,16.75
2023-10-19T19:57:42.978Z,17.70
2023-10-19T20:02:45.978Z,17.42
2023-10-19T20:05:13.489Z,17.38
2023-10-19T20:07:40.721Z,15.70
2023-10-19T20:12:42.292Z,14.93
2023-10-19T20:15:09.490Z,15.30
2023-10-19T20:17:36.400Z,14.57
2023-10-19T20:20:12.637Z,14.10
2023-10-19T20:22:41.738Z,15.45
2023-10-19T20:25:12.697Z,14.05
2023-10-19T20:27:41.117Z,14.00
2023-10-19T20:30:08.629Z,13.52
2023-10-19T20:32:35.782Z,13.75
2023-10-19T20:37:28.937Z,11.52
2023-10-19T20:39:59.001Z,11.93
2023-10-19T20:42:25.623Z,12.02
2023-10-19T20:44:53.426Z,12.45
2023-10-19T20:47:20.119Z,11.40
2023-10-19T20:49:46.878Z,11.15
2023-10-19T20:52:13.451Z,11.65
2023-10-19T20:54:40.745Z,11.30
2023-10-19T20:57:07.873Z,11.35
2023-10-19T21:02:03.942Z,10.57
2023-10-19T21:04:31.933Z,9.75
2023-10-19T21:06:58.834Z,10.90
2023-10-19T21:09:25.479Z,10.50
2023-10-19T21:11:52.004Z,10.85
2023-10-19T21:14:18.700Z,9.77
2023-10-19T21:16:45.312Z,9.50
2023-10-19T21:19:22.381Z,9.80
2023-10-19T21:21:58.814Z,10.02
2023-10-19T21:24:25.441Z,9.02
2023-10-19T21:26:52.379Z,9.02
2023-10-19T21:29:19.132Z,8.73
2023-10-19T21:31:45.765Z,9.20
2023-10-19T21:34:12.508Z,9.18
2023-10-19T21:36:39.084Z,8.45
2023-10-19T21:39:05.854Z,8.63
2023-10-19T21:41:32.492Z,8.90
2023-10-19T21:43:59.794Z,8.35
2023-10-19T21:46:26.933Z,8.60
2023-10-19T21:48:53.571Z,9.05
2023-10-19T21:51:20.304Z,8.35
2023-10-19T21:53:51.138Z,7.82
2023-10-19T21:56:18.762Z,8.38
2023-10-19T21:58:45.471Z,7.70
2023-10-19T22:01:14.653Z,8.30
2023-10-19T22:03:42.563Z,7.72
2023-10-19T22:06:09.395Z,7.88
2023-10-19T22:08:36.525Z,7.80
2023-10-19T22:11:03.387Z,8.38
2023-10-19T22:13:31.884Z,7.72
2023-10-19T22:15:58.507Z,8.52
2023-10-19T22:18:25.300Z,7.68
2023-10-19T22:20:56.062Z,7.15
2023-10-19T22:23:23.566Z,7.47
2023-10-19T22:25:50.160Z,8.15
2023-10-19T22:28:17.404Z,7.43
2023-10-19T22:30:44.136Z,7.20
2023-10-19T22:33:10.811Z,6.15
2023-10-19T22:35:38.471Z,6.53
2023-10-19T22:38:06.027Z,6.22
2023-10-19T22:40:32.653Z,6.22
2023-10-19T22:42:59.298Z,6.15
2023-10-19T22:45:25.939Z,6.15
2023-10-19T22:47:53.247Z,6.03
2023-10-19T22:50:20.099Z,5.82
2023-10-19T22:52:47.058Z,5.90
2023-10-19T22:57:41.996Z,5.32
2023-10-19T23:00:15.904Z,4.68
2023-10-19T23:02:46.421Z,4.95
2023-10-19T23:05:14.524Z,4.40
2023-10-19T23:07:42.622Z,4.60
2023-10-19T23:10:13.668Z,4.68
2023-10-19T23:12:42.228Z,4.32
2023-10-19T23:15:20.397Z,4.40
2023-10-19T23:17:50.875Z,4.18
2023-10-19T23:20:29.290Z,4.43
2023-10-19T23:22:58.107Z,4.18
2023-10-19T23:25:24.966Z,4.22
2023-10-19T23:27:51.576Z,4.47
2023-10-19T23:30:18.293Z,3.65
2023-10-19T23:32:44.993Z,3.75
2023-10-19T23:35:11.723Z,4.10
2023-10-19T23:37:38.413Z,3.83
2023-10-19T23:40:08.559Z,3.97
2023-10-19T23:42:35.727Z,3.53
2023-10-19T23:47:28.904Z,3.45
2023-10-19T23:49:55.661Z,4.05
2023-10-19T23:52:22.262Z,3.78
2023-10-19T23:54:48.983Z,3.55
2023-10-19T23:57:18.333Z,3.33
2023-10-19T23:59:48.381Z,3.35
